createdAt,value
2022-08-17T00:02:26.518Z,99738.78
2022-08-17T00:05:30.336Z,99746.62
2022-08-17T00:08:39.240Z,99747.31
2022-08-17T00:11:42.306Z,99752.00
2022-08-17T00:15:04.749Z,99746.31
2022-08-17T00:19:06.555Z,99747.78
2022-08-17T00:21:44.691Z,99748.84
2022-08-17T00:24:50.648Z,99751.47
2022-08-17T00:27:52.495Z,99750.97
2022-08-17T00:30:55.835Z,99744.53
2022-08-17T00:33:57.655Z,99748.78
2022-08-17T00:36:59.497Z,99741.13
2022-08-17T00:40:01.412Z,99745.16
2022-08-17T00:43:21.982Z,99744.16
2022-08-17T00:46:34.884Z,99747.34
2022-08-17T00:49:36.702Z,99739.44
2022-08-17T00:52:40.027Z,99740.13
2022-08-17T00:55:41.910Z,99739.22
2022-08-17T00:58:43.742Z,99746.66
2022-08-17T01:01:45.992Z,99760.31
2022-08-17T01:04:48.207Z,99765.34
2022-08-17T01:07:51.035Z,99758.59
2022-08-17T01:10:59.417Z,99764.16
2022-08-17T01:14:03.673Z,99764.84
2022-08-17T01:17:05.913Z,99766.69
2022-08-17T01:20:07.931Z,99768.22
2022-08-17T01:23:09.764Z,99764.03
2022-08-17T01:26:14.030Z,99772.28
2022-08-17T01:29:16.011Z,99771.63
2022-08-17T01:32:18.926Z,99761.09
2022-08-17T01:35:20.846Z,99764.31
2022-08-17T01:38:27.240Z,99776.06
2022-08-17T01:41:29.210Z,99761.19
2022-08-17T01:44:31.108Z,99768.97
2022-08-17T01:47:32.979Z,99771.09
2022-08-17T01:50:38.119Z,99769.69
2022-08-17T01:53:41.003Z,99768.72
2022-08-17T01:56:47.405Z,99765.63
2022-08-17T01:59:49.664Z,99777.34
2022-08-17T02:02:51.578Z,99767.22
2022-08-17T02:05:53.659Z,99766.91
2022-08-17T02:09:02.566Z,99773.91
2022-08-17T02:12:37.204Z,99771.63
2022-08-17T02:15:27.634Z,99772.03
2022-08-17T02:18:30.209Z,99775.69
2022-08-17T02:21:32.519Z,99772.19
2022-08-17T02:25:01.187Z,99764.84
2022-08-17T02:27:56.934Z,99762.88
2022-08-17T02:31:03.733Z,99758.53
2022-08-17T02:34:06.210Z,99750.88
2022-08-17T02:37:08.598Z,99761.41
2022-08-17T02:40:10.732Z,99756.59
2022-08-17T02:43:13.773Z,99755.88
2022-08-17T02:46:15.633Z,99760.69
2022-08-17T02:49:17.437Z,99752.59
2022-08-17T02:52:19.270Z,99754.59
2022-08-17T02:55:41.578Z,99764.50
2022-08-17T02:58:43.463Z,99762.78
2022-08-17T03:01:45.342Z,99766.91
2022-08-17T03:04:47.321Z,99764.56
2022-08-17T03:07:49.149Z,99768.97
2022-08-17T03:10:50.958Z,99772.78
2022-08-17T03:13:52.826Z,99767.63
2022-08-17T03:16:54.663Z,99763.38
2022-08-17T03:19:56.486Z,99769.28
2022-08-17T03:23:02.776Z,99766.44
2022-08-17T03:26:05.049Z,99768.97
2022-08-17T03:29:18.861Z,99765.72
2022-08-17T03:32:20.833Z,99780.69
2022-08-17T03:35:24.689Z,99785.91
2022-08-17T03:38:26.558Z,99788.34
2022-08-17T03:41:28.390Z,99796.38
2022-08-17T03:44:30.192Z,99785.47
2022-08-17T03:47:50.870Z,99792.19
2022-08-17T03:51:14.682Z,99792.59
2022-08-17T03:54:35.317Z,99793.19
2022-08-17T03:57:37.129Z,99796.75
2022-08-17T04:00:42.319Z,99799.78
2022-08-17T04:03:44.172Z,99812.72
2022-08-17T04:06:46.217Z,99805.56
2022-08-17T04:09:48.119Z,99809.91
2022-08-17T04:12:51.607Z,99811.31
2022-08-17T04:15:53.840Z,99821.31
2022-08-17T04:18:55.760Z,99809.56
2022-08-17T04:22:00.253Z,99813.66
2022-08-17T04:25:04.209Z,99813.59
2022-08-17T04:28:07.622Z,99810.56
2022-08-17T04:31:17.538Z,99814.06
2022-08-17T04:34:19.875Z,99816.94
2022-08-17T04:37:22.097Z,99820.84
2022-08-17T04:40:43.356Z,99825.00
2022-08-17T04:43:45.664Z,99833.25
2022-08-17T04:46:48.034Z,99824.63
2022-08-17T04:49:49.853Z,99828.53
2022-08-17T04:52:51.849Z,99833.34
2022-08-17T04:55:54.148Z,99825.37
2022-08-17T04:58:57.726Z,99838.47
2022-08-17T05:01:59.536Z,99834.03
2022-08-17T05:05:01.432Z,99837.00
2022-08-17T05:08:04.262Z,99836.25
2022-08-17T05:11:07.499Z,99850.56
2022-08-17T05:14:09.351Z,99835.22
2022-08-17T05:17:11.567Z,99845.81
2022-08-17T05:20:13.572Z,99843.03
2022-08-17T05:23:16.592Z,99837.56
2022-08-17T05:26:25.475Z,99837.59
2022-08-17T05:29:35.583Z,99837.19
2022-08-17T05:32:40.338Z,99836.44
2022-08-17T05:35:44.468Z,99832.38
2022-08-17T05:38:46.304Z,99829.12
2022-08-17T05:41:48.310Z,99830.03
2022-08-17T05:44:52.547Z,99832.41
2022-08-17T05:47:54.390Z,99834.37
2022-08-17T05:51:11.307Z,99818.75
2022-08-17T05:54:19.545Z,99838.75
2022-08-17T05:57:21.308Z,99843.59
2022-08-17T06:00:26.472Z,99839.44
2022-08-17T06:03:39.299Z,99850.16
2022-08-17T06:07:01.600Z,99841.69
2022-08-17T06:10:05.904Z,99846.41
2022-08-17T06:13:07.947Z,99845.22
2022-08-17T06:16:33.914Z,99840.87
2022-08-17T06:19:37.069Z,99849.06
2022-08-17T06:22:45.119Z,99858.66
2022-08-17T06:25:48.836Z,99852.47
2022-08-17T06:28:52.175Z,99854.69
2022-08-17T06:31:54.053Z,99854.22
2022-08-17T06:34:57.569Z,99862.31
2022-08-17T06:38:02.330Z,99848.22
2022-08-17T06:41:23.131Z,99849.16
2022-08-17T06:44:43.729Z,99850.84
2022-08-17T06:47:52.736Z,99848.44
2022-08-17T06:50:54.604Z,99854.97
2022-08-17T06:54:07.253Z,99852.75
2022-08-17T06:57:21.639Z,99850.91
2022-08-17T07:00:24.924Z,99848.91
2022-08-17T07:03:29.918Z,99844.56
2022-08-17T07:06:37.774Z,99844.69
2022-08-17T07:09:40.198Z,99851.97
2022-08-17T07:12:42.403Z,99848.13
2022-08-17T07:15:44.500Z,99851.31
2022-08-17T07:18:46.866Z,99851.56
2022-08-17T07:21:52.058Z,99853.19
2022-08-17T07:24:59.945Z,99850.72
2022-08-17T07:28:03.889Z,99851.75
2022-08-17T07:31:09.374Z,99847.41
2022-08-17T07:34:17.128Z,99846.66
2022-08-17T07:37:19.278Z,99845.97
2022-08-17T07:40:32.123Z,99845.78
2022-08-17T07:43:37.560Z,99846.69
2022-08-17T07:47:08.846Z,99852.94
2022-08-17T07:50:40.146Z,99841.66
2022-08-17T07:53:42.271Z,99835.72
2022-08-17T07:56:45.536Z,99843.44
2022-08-17T07:59:59.825Z,99844.00
2022-08-17T08:03:04.572Z,99844.03
2022-08-17T08:06:20.381Z,99847.16
2022-08-17T08:09:34.468Z,99854.81
2022-08-17T08:12:39.544Z,99845.44
2022-08-17T08:15:54.280Z,99843.44
2022-08-17T08:18:58.263Z,99844.97
2022-08-17T08:22:11.276Z,99837.78
2022-08-17T08:25:23.032Z,99843.78
2022-08-17T08:28:36.083Z,99832.87
2022-08-17T08:31:57.668Z,99842.19
2022-08-17T08:35:07.882Z,99840.19
2022-08-17T08:38:20.216Z,99829.47
2022-08-17T08:41:30.962Z,99831.06
2022-08-17T08:45:00.113Z,99829.09
2022-08-17T08:48:07.252Z,99828.06
2022-08-17T08:51:27.662Z,99823.94
2022-08-17T08:54:33.476Z,99834.03
2022-08-17T08:57:40.014Z,99822.09
2022-08-17T09:00:43.846Z,99829.94
2022-08-17T09:03:53.354Z,99814.47
2022-08-17T09:07:04.641Z,99814.00
2022-08-17T09:10:09.353Z,99813.59
2022-08-17T09:13:22.813Z,99817.09
2022-08-17T09:16:33.250Z,99825.34
2022-08-17T09:19:38.238Z,99826.00
2022-08-17T09:22:44.671Z,99830.72
2022-08-17T09:25:51.563Z,99822.34
2022-08-17T09:28:54.730Z,99824.19
2022-08-17T09:31:57.924Z,99823.41
2022-08-17T09:35:05.761Z,99826.03
2022-08-17T09:38:16.870Z,99819.50
2022-08-17T09:41:24.513Z,99820.19
2022-08-17T09:44:52.858Z,99811.03
2022-08-17T09:48:07.195Z,99815.75
2022-08-17T09:51:23.662Z,99813.13
2022-08-17T09:54:44.851Z,99799.66
2022-08-17T09:57:53.120Z,99794.44
2022-08-17T10:01:00.058Z,99788.25
2022-08-17T10:04:22.852Z,99784.59
2022-08-17T10:07:27.957Z,99798.25
2022-08-17T10:10:33.479Z,99795.56
2022-08-17T10:13:54.408Z,99790.25
2022-08-17T10:17:11.263Z,99785.81
2022-08-17T10:20:16.466Z,99792.47
2022-08-17T10:23:40.788Z,99799.81
2022-08-17T10:26:55.832Z,99793.88
2022-08-17T10:30:00.163Z,99793.50
2022-08-17T10:33:03.889Z,99788.09
2022-08-17T10:36:38.042Z,99782.59
2022-08-17T10:39:52.408Z,99790.34
2022-08-17T10:43:02.514Z,99788.66
2022-08-17T10:46:31.317Z,99792.25
2022-08-17T10:49:47.448Z,99793.06
2022-08-17T10:52:50.983Z,99798.81
2022-08-17T10:56:11.746Z,99795.91
2022-08-17T10:59:33.724Z,99797.31
2022-08-17T11:02:54.300Z,99793.72
2022-08-17T11:06:02.717Z,99792.09
2022-08-17T11:09:11.389Z,99785.69
2022-08-17T11:12:13.378Z,99790.13
2022-08-17T11:15:21.336Z,99775.06
2022-08-17T11:18:26.191Z,99779.53
2022-08-17T11:21:28.206Z,99778.63
2022-08-17T11:24:36.237Z,99768.22
2022-08-17T11:27:38.071Z,99768.16
2022-08-17T11:30:48.534Z,99764.66
2022-08-17T11:33:53.065Z,99750.31
2022-08-17T11:36:58.396Z,99754.12
2022-08-17T11:40:19.063Z,99742.59
2022-08-17T11:43:30.222Z,99742.69
2022-08-17T11:47:13.820Z,99747.31
2022-08-17T11:50:40.399Z,99738.09
2022-08-17T11:53:42.994Z,99735.28
2022-08-17T11:56:49.143Z,99742.47
2022-08-17T11:59:54.390Z,99732.94
2022-08-17T12:03:22.244Z,99732.53
2022-08-17T12:06:30.655Z,99737.81
2022-08-17T12:09:33.032Z,99730.06
2022-08-17T12:12:36.075Z,99731.19
2022-08-17T12:15:41.055Z,99721.94
2022-08-17T12:18:48.894Z,99730.38
2022-08-17T12:21:59.151Z,99723.53
2022-08-17T12:25:04.975Z,99721.47
2022-08-17T12:28:20.127Z,99718.78
2022-08-17T12:31:27.342Z,99707.28
2022-08-17T12:34:39.268Z,99711.00
2022-08-17T12:37:43.478Z,99709.69
2022-08-17T12:41:28.499Z,99708.78
2022-08-17T12:44:31.579Z,99703.28
2022-08-17T12:47:35.687Z,99698.69
2022-08-17T12:50:39.418Z,99701.63
2022-08-17T12:53:44.924Z,99711.47
2022-08-17T12:56:47.646Z,99710.63
2022-08-17T12:59:54.285Z,99712.28
2022-08-17T13:03:03.533Z,99704.31
2022-08-17T13:06:06.661Z,99703.44
2022-08-17T13:09:13.411Z,99711.00
2022-08-17T13:12:15.615Z,99704.66
2022-08-17T13:15:27.737Z,99705.34
2022-08-17T13:18:43.210Z,99705.91
2022-08-17T13:21:47.309Z,99710.22
2022-08-17T13:24:53.149Z,99707.75
2022-08-17T13:27:55.665Z,99701.25
2022-08-17T13:31:16.750Z,99712.22
2022-08-17T13:34:18.691Z,99702.00
2022-08-17T13:37:29.554Z,99688.47
2022-08-17T13:40:38.844Z,99688.63
2022-08-17T13:43:50.610Z,99689.88
2022-08-17T13:46:52.557Z,99694.22
2022-08-17T13:49:59.533Z,99701.69
2022-08-17T13:53:01.589Z,99700.56
2022-08-17T13:56:03.576Z,99691.81
2022-08-17T13:59:16.086Z,99688.69
2022-08-17T14:02:18.858Z,99699.41
2022-08-17T14:05:23.118Z,99685.25
2022-08-17T14:08:30.979Z,99697.66
2022-08-17T14:11:33.411Z,99691.94
2022-08-17T14:14:35.553Z,99683.50
2022-08-17T14:17:39.050Z,99691.53
2022-08-17T14:20:41.144Z,99681.44
2022-08-17T14:23:54.307Z,99681.75
2022-08-17T14:26:57.766Z,99684.50
2022-08-17T14:30:03.433Z,99687.63
2022-08-17T14:33:06.158Z,99680.28
2022-08-17T14:36:08.479Z,99683.41
2022-08-17T14:39:10.598Z,99680.06
2022-08-17T14:42:15.569Z,99681.34
2022-08-17T14:45:31.494Z,99683.81
2022-08-17T14:48:38.355Z,99679.69
2022-08-17T14:51:43.714Z,99690.59
2022-08-17T14:54:46.388Z,99681.00
2022-08-17T14:57:48.524Z,99678.12
2022-08-17T15:00:53.449Z,99669.53
2022-08-17T15:03:55.280Z,99676.62
2022-08-17T15:06:58.330Z,99680.00
2022-08-17T15:10:01.351Z,99672.44
2022-08-17T15:13:03.880Z,99671.22
2022-08-17T15:16:05.852Z,99677.44
2022-08-17T15:19:08.005Z,99685.22
2022-08-17T15:22:18.106Z,99681.25
2022-08-17T15:25:20.035Z,99674.19
2022-08-17T15:28:25.131Z,99681.91
2022-08-17T15:31:32.202Z,99681.56
2022-08-17T15:34:34.511Z,99683.75
2022-08-17T15:37:37.570Z,99687.94
2022-08-17T15:40:40.997Z,99676.81
2022-08-17T15:43:43.000Z,99681.06
2022-08-17T15:46:44.895Z,99670.22
2022-08-17T15:49:46.831Z,99679.75
2022-08-17T15:52:53.835Z,99680.59
2022-08-17T15:55:55.761Z,99690.69
2022-08-17T15:58:57.991Z,99692.78
2022-08-17T16:03:16.133Z,99690.25
2022-08-17T16:05:24.132Z,99685.69
2022-08-17T16:08:28.725Z,99686.13
2022-08-17T16:11:30.525Z,99688.69
2022-08-17T16:14:34.933Z,99686.78
2022-08-17T16:17:40.206Z,99683.13
2022-08-17T16:20:42.822Z,99678.41
2022-08-17T16:23:44.681Z,99680.91
2022-08-17T16:26:46.577Z,99683.47
2022-08-17T16:29:48.478Z,99678.69
2022-08-17T16:32:56.659Z,99677.62
2022-08-17T16:35:58.578Z,99670.25
2022-08-17T16:39:01.410Z,99676.75
2022-08-17T16:42:03.414Z,99684.28
2022-08-17T16:45:07.634Z,99675.81
2022-08-17T16:48:09.705Z,99680.37
2022-08-17T16:51:11.619Z,99678.94
2022-08-17T16:54:17.569Z,99677.94
2022-08-17T16:57:19.652Z,99674.13
2022-08-17T17:00:21.583Z,99678.78
2022-08-17T17:03:23.954Z,99674.91
2022-08-17T17:06:45.164Z,99686.13
2022-08-17T17:09:52.694Z,99683.84
2022-08-17T17:13:01.546Z,99688.13
2022-08-17T17:16:17.797Z,99689.19
2022-08-17T17:19:34.313Z,99691.69
2022-08-17T17:22:37.588Z,99686.47
2022-08-17T17:26:01.759Z,99686.22
2022-08-17T17:29:03.647Z,99690.03
2022-08-17T17:32:17.335Z,99701.47
2022-08-17T17:35:21.727Z,99700.16
2022-08-17T17:38:29.088Z,99691.81
2022-08-17T17:41:37.671Z,99706.19
2022-08-17T17:44:41.170Z,99715.88
2022-08-17T17:47:43.657Z,99717.94
2022-08-17T17:51:09.476Z,99717.75
2022-08-17T17:54:14.416Z,99718.81
2022-08-17T17:57:24.676Z,99727.00
2022-08-17T18:00:30.965Z,99725.09
2022-08-17T18:03:51.689Z,99726.84
2022-08-17T18:07:00.282Z,99721.06
2022-08-17T18:10:05.063Z,99723.69
2022-08-17T18:13:26.646Z,99733.13
2022-08-17T18:16:31.911Z,99736.66
2022-08-17T18:19:34.063Z,99741.06
2022-08-17T18:22:35.967Z,99732.03
2022-08-17T18:25:40.625Z,99740.56
2022-08-17T18:28:43.956Z,99746.69
2022-08-17T18:31:45.866Z,99746.16
2022-08-17T18:34:49.092Z,99755.03
2022-08-17T18:37:52.109Z,99759.09
2022-08-17T18:41:05.083Z,99759.81
2022-08-17T18:44:16.579Z,99761.84
2022-08-17T18:47:25.702Z,99760.50
2022-08-17T18:50:28.965Z,99765.25
2022-08-17T18:53:38.140Z,99769.88
2022-08-17T18:56:43.810Z,99765.16
2022-08-17T18:59:47.000Z,99769.25
2022-08-17T19:02:52.748Z,99768.91
2022-08-17T19:06:14.913Z,99768.06
2022-08-17T19:09:26.941Z,99767.50
2022-08-17T19:12:33.645Z,99768.81
2022-08-17T19:15:35.889Z,99776.16
2022-08-17T19:18:40.697Z,99775.72
2022-08-17T19:21:43.034Z,99779.81
2022-08-17T19:24:47.766Z,99775.56
2022-08-17T19:28:21.750Z,99786.38
2022-08-17T19:31:26.760Z,99785.53
2022-08-17T19:34:34.002Z,99788.91
2022-08-17T19:37:37.332Z,99789.88
2022-08-17T19:40:53.978Z,99783.81
2022-08-17T19:44:11.606Z,99790.78
2022-08-17T19:47:43.802Z,99794.47
2022-08-17T19:50:49.773Z,99800.31
2022-08-17T19:54:05.532Z,99789.53
2022-08-17T19:57:08.355Z,99792.22
2022-08-17T20:00:16.466Z,99797.44
2022-08-17T20:03:23.161Z,99801.75
2022-08-17T20:06:27.481Z,99793.75
2022-08-17T20:09:37.558Z,99797.63
2022-08-17T20:12:39.771Z,99791.97
2022-08-17T20:15:42.729Z,99792.72
2022-08-17T20:18:47.701Z,99789.69
2022-08-17T20:21:52.774Z,99786.59
2022-08-17T20:24:58.114Z,99784.03
2022-08-17T20:28:18.891Z,99789.84
2022-08-17T20:31:39.428Z,99790.31
2022-08-17T20:34:42.717Z,99785.72
2022-08-17T20:37:51.519Z,99784.31
2022-08-17T20:40:57.449Z,99782.81
2022-08-17T20:43:59.402Z,99782.75
2022-08-17T20:47:03.767Z,99785.78
2022-08-17T20:50:07.022Z,99776.62
2022-08-17T20:53:15.161Z,99776.16
2022-08-17T20:56:36.359Z,99781.72
2022-08-17T20:59:45.158Z,99781.88
2022-08-17T21:02:49.635Z,99781.91
2022-08-17T21:05:59.875Z,99782.03
2022-08-17T21:09:16.137Z,99768.09
2022-08-17T21:12:36.861Z,99776.09
2022-08-17T21:15:42.953Z,99789.19
2022-08-17T21:18:48.787Z,99787.44
2022-08-17T21:21:50.647Z,99789.56
2022-08-17T21:24:55.336Z,99785.41
2022-08-17T21:27:58.660Z,99791.91
2022-08-17T21:31:06.787Z,99794.53
2022-08-17T21:34:15.844Z,99797.53
2022-08-17T21:37:20.537Z,99791.50
2022-08-17T21:40:24.893Z,99802.47
2022-08-17T21:43:32.423Z,99806.94
2022-08-17T21:46:36.954Z,99807.44
2022-08-17T21:49:39.730Z,99803.66
2022-08-17T21:52:41.613Z,99813.72
2022-08-17T21:55:43.463Z,99811.13
2022-08-17T21:58:48.530Z,99813.94
2022-08-17T22:01:56.027Z,99816.75
2022-08-17T22:05:03.088Z,99802.28
2022-08-17T22:08:18.458Z,99821.81
2022-08-17T22:11:22.588Z,99822.91
2022-08-17T22:33:35.990Z,99841.50
2022-08-17T22:36:39.030Z,99842.72
2022-08-17T22:39:41.078Z,99843.53
2022-08-17T22:42:44.132Z,99842.88
2022-08-17T22:45:47.178Z,99847.84
2022-08-17T22:48:50.168Z,99862.63
2022-08-17T22:51:59.358Z,99877.78
2022-08-17T22:55:31.741Z,99888.38
2022-08-17T22:58:59.062Z,99882.13
2022-08-17T23:02:13.127Z,99888.63
2022-08-17T23:05:16.635Z,99891.91
2022-08-17T23:08:21.278Z,99904.88
2022-08-17T23:11:36.811Z,99893.03
2022-08-17T23:14:51.484Z,99900.19
2022-08-17T23:17:53.554Z,99906.62
2022-08-17T23:20:55.607Z,99918.25
2022-08-17T23:23:59.067Z,99921.44
2022-08-17T23:27:01.163Z,99918.97
2022-08-17T23:30:03.270Z,99918.53
2022-08-17T23:33:05.770Z,99917.31
2022-08-17T23:36:09.691Z,99919.53
2022-08-17T23:39:11.577Z,99906.44
2022-08-17T23:42:15.356Z,99902.69
2022-08-17T23:45:17.989Z,99899.34
2022-08-17T23:48:35.454Z,99895.34
2022-08-17T23:51:42.577Z,99893.16
2022-08-17T23:54:46.516Z,99900.19
2022-08-17T23:57:48.591Z,99898.69
